createdAt,value
2023-03-10T00:00:01.618Z,91.90
2023-03-10T00:02:30.928Z,91.80
2023-03-10T00:04:57.831Z,91.90
2023-03-10T00:07:24.893Z,91.90
2023-03-10T00:09:51.636Z,91.70
2023-03-10T00:12:18.388Z,91.80
2023-03-10T00:14:45.152Z,91.80
2023-03-10T00:17:11.883Z,92.00
2023-03-10T00:19:40.087Z,91.90
2023-03-10T00:22:06.848Z,91.70
2023-03-10T00:24:33.602Z,91.70
2023-03-10T00:27:00.339Z,91.40
2023-03-10T00:29:27.160Z,91.50
2023-03-10T00:31:53.881Z,91.60
2023-03-10T00:34:20.832Z,91.80
2023-03-10T00:36:48.967Z,91.90
2023-03-10T00:39:15.978Z,91.90
2023-03-10T00:41:42.725Z,91.80
2023-03-10T00:44:10.171Z,91.80
2023-03-10T00:46:37.241Z,91.70
2023-03-10T00:49:04.627Z,91.90
2023-03-10T00:51:31.431Z,92.20
2023-03-10T00:54:00.010Z,92.30
2023-03-10T00:56:27.162Z,92.50
2023-03-10T00:58:56.525Z,92.40
2023-03-10T01:01:25.096Z,92.30
2023-03-10T01:03:52.548Z,92.10
2023-03-10T01:06:20.054Z,92.60
2023-03-10T01:08:46.809Z,92.30
2023-03-10T01:11:16.324Z,92.10
2023-03-10T01:13:43.142Z,92.10
2023-03-10T01:16:10.297Z,92.20
2023-03-10T01:18:37.490Z,92.20
2023-03-10T01:21:04.725Z,91.70
2023-03-10T01:23:31.601Z,92.00
2023-03-10T01:25:58.551Z,92.00
2023-03-10T01:28:26.705Z,91.60
2023-03-10T01:30:53.526Z,91.70
2023-03-10T01:33:20.308Z,91.60
2023-03-10T01:35:47.064Z,91.70
2023-03-10T01:38:13.847Z,91.70
2023-03-10T01:40:46.893Z,91.70
2023-03-10T01:43:35.138Z,91.70
2023-03-10T01:46:36.059Z,92.00
2023-03-10T01:49:05.885Z,91.80
2023-03-10T01:51:35.826Z,91.60
2023-03-10T01:54:05.437Z,91.60
2023-03-10T01:56:32.265Z,91.60
2023-03-10T01:59:00.461Z,92.10
2023-03-10T02:01:27.393Z,92.10
2023-03-10T02:03:58.867Z,92.30
2023-03-10T02:06:26.480Z,92.00
2023-03-10T02:08:57.488Z,92.10
2023-03-10T02:11:24.615Z,92.10
2023-03-10T02:13:51.531Z,92.20
2023-03-10T02:16:20.361Z,92.20
2023-03-10T02:18:47.913Z,92.40
2023-03-10T02:21:23.547Z,92.20
2023-03-10T02:24:01.578Z,92.30
2023-03-10T02:26:35.973Z,92.20
2023-03-10T02:29:06.961Z,92.30
2023-03-10T02:31:34.458Z,92.30
2023-03-10T02:34:01.622Z,92.40
2023-03-10T02:36:28.374Z,92.30
2023-03-10T02:38:55.051Z,92.10
2023-03-10T02:41:26.405Z,92.40
2023-03-10T02:43:54.576Z,92.30
2023-03-10T02:46:23.188Z,92.20
2023-03-10T02:48:49.931Z,92.20
2023-03-10T02:51:21.150Z,92.00
2023-03-10T02:53:47.960Z,92.00
2023-03-10T02:56:14.788Z,92.00
2023-03-10T02:58:41.870Z,92.00
2023-03-10T03:01:08.785Z,92.20
2023-03-10T03:03:37.061Z,92.30
2023-03-10T03:06:04.431Z,92.30
2023-03-10T03:08:31.203Z,92.50
2023-03-10T03:10:57.955Z,92.60
2023-03-10T03:13:24.726Z,92.50
2023-03-10T03:15:51.839Z,93.10
2023-03-10T03:18:18.635Z,93.20
2023-03-10T03:20:46.713Z,93.00
2023-03-10T03:23:13.553Z,93.30
2023-03-10T03:25:41.573Z,93.50
2023-03-10T03:28:11.183Z,93.60
2023-03-10T03:30:38.906Z,93.40
2023-03-10T03:33:06.829Z,93.80
2023-03-10T03:35:36.307Z,93.60
2023-03-10T03:38:05.093Z,93.60
2023-03-10T03:40:33.393Z,93.90
2023-03-10T03:43:00.464Z,93.90
2023-03-10T03:45:29.188Z,93.90
2023-03-10T03:47:56.296Z,94.00
2023-03-10T03:50:23.882Z,94.00
2023-03-10T03:52:52.221Z,94.60
2023-03-10T03:55:20.476Z,94.50
2023-03-10T03:57:47.749Z,94.50
2023-03-10T04:00:18.913Z,94.50
2023-03-10T04:02:45.755Z,94.40
2023-03-10T04:05:12.497Z,93.80
2023-03-10T04:07:39.915Z,93.40
2023-03-10T04:10:08.654Z,92.90
2023-03-10T04:12:36.735Z,92.70
2023-03-10T04:15:04.263Z,92.50
2023-03-10T04:17:30.939Z,92.70
2023-03-10T04:20:07.176Z,92.50
2023-03-10T04:22:35.125Z,92.30
2023-03-10T04:25:02.300Z,91.90
2023-03-10T04:27:29.074Z,91.50
2023-03-10T04:29:57.388Z,91.20
2023-03-10T04:32:24.351Z,91.10
2023-03-10T04:34:51.514Z,91.00
2023-03-10T04:37:18.255Z,90.90
2023-03-10T04:39:44.938Z,90.90
2023-03-10T04:42:11.653Z,90.80
2023-03-10T04:44:38.377Z,90.90
2023-03-10T04:47:06.788Z,90.80
2023-03-10T04:49:33.516Z,90.70
2023-03-10T04:52:00.284Z,90.60
2023-03-10T04:54:26.981Z,90.60
2023-03-10T04:56:53.664Z,90.60
2023-03-10T04:59:20.374Z,90.60
2023-03-10T05:01:47.272Z,90.70
2023-03-10T05:04:15.336Z,90.70
2023-03-10T05:06:42.221Z,90.70
2023-03-10T05:09:08.920Z,90.80
2023-03-10T05:11:35.736Z,90.90
2023-03-10T05:14:02.437Z,90.90
2023-03-10T05:16:29.293Z,90.90
2023-03-10T05:18:56.279Z,91.00
2023-03-10T05:21:24.491Z,91.10
2023-03-10T05:23:51.197Z,91.10
2023-03-10T05:26:18.025Z,91.20
2023-03-10T05:28:44.806Z,91.30
2023-03-10T05:31:13.432Z,91.30
2023-03-10T05:33:40.750Z,91.50
2023-03-10T05:36:09.474Z,91.70
2023-03-10T05:38:38.121Z,91.80
2023-03-10T05:41:07.483Z,92.00
2023-03-10T05:43:34.345Z,92.20
2023-03-10T05:46:01.493Z,92.70
2023-03-10T05:48:28.227Z,92.70
2023-03-10T05:51:03.428Z,92.80
2023-03-10T05:53:30.667Z,93.00
2023-03-10T05:55:59.262Z,93.30
2023-03-10T05:58:26.987Z,93.40
2023-03-10T06:00:53.823Z,93.80
2023-03-10T06:03:20.851Z,93.90
2023-03-10T06:05:47.599Z,94.00
2023-03-10T06:08:14.296Z,94.30
2023-03-10T06:10:41.157Z,94.20
2023-03-10T06:13:09.202Z,94.50
2023-03-10T06:15:35.926Z,94.30
2023-03-10T06:18:02.860Z,94.60
2023-03-10T06:20:29.561Z,94.50
2023-03-10T06:22:56.252Z,94.50
2023-03-10T06:25:23.074Z,94.70
2023-03-10T06:27:50.061Z,94.50
2023-03-10T06:30:18.454Z,94.70
2023-03-10T06:32:45.175Z,94.80
2023-03-10T06:35:13.757Z,94.80
2023-03-10T06:37:40.852Z,95.10
2023-03-10T06:40:09.521Z,95.00
2023-03-10T06:42:36.275Z,95.30
2023-03-10T06:45:03.451Z,95.30
2023-03-10T06:47:31.575Z,95.50
2023-03-10T06:49:58.329Z,95.40
2023-03-10T06:52:25.074Z,95.50
2023-03-10T06:54:51.793Z,95.50
2023-03-10T06:57:20.872Z,95.60
2023-03-10T06:59:47.809Z,95.60
2023-03-10T07:02:14.702Z,95.70
2023-03-10T07:04:42.841Z,95.80
2023-03-10T07:07:09.565Z,95.80
2023-03-10T07:09:36.376Z,95.80
2023-03-10T07:12:03.305Z,95.80
2023-03-10T07:14:30.050Z,95.80
2023-03-10T07:16:56.991Z,95.80
2023-03-10T07:19:24.024Z,95.70
2023-03-10T07:21:52.092Z,95.90
2023-03-10T07:24:18.814Z,95.90
2023-03-10T07:26:45.685Z,96.00
2023-03-10T07:29:12.404Z,95.80
2023-03-10T07:31:39.151Z,95.90
2023-03-10T07:34:05.881Z,95.90
2023-03-10T07:36:32.602Z,96.00
2023-03-10T07:39:00.969Z,95.90
2023-03-10T07:41:27.726Z,96.00
2023-03-10T07:43:54.976Z,96.00
2023-03-10T07:46:22.239Z,96.00
2023-03-10T07:48:49.022Z,96.00
2023-03-10T07:51:15.778Z,96.00
2023-03-10T07:53:42.528Z,96.10
2023-03-10T07:56:12.909Z,96.10
2023-03-10T07:58:40.761Z,96.00
2023-03-10T08:01:08.779Z,96.10
2023-03-10T08:03:35.930Z,96.10
2023-03-10T08:06:02.829Z,96.10
2023-03-10T08:08:29.754Z,96.00
2023-03-10T08:11:04.552Z,96.10
2023-03-10T08:13:33.032Z,96.40
2023-03-10T08:16:01.062Z,96.30
2023-03-10T08:18:28.916Z,96.40
2023-03-10T08:20:55.990Z,96.30
2023-03-10T08:23:23.220Z,96.20
2023-03-10T08:25:50.256Z,96.50
2023-03-10T08:28:16.967Z,96.40
2023-03-10T08:31:02.512Z,96.40
2023-03-10T08:33:30.843Z,96.60
2023-03-10T08:36:08.741Z,96.40
2023-03-10T08:38:36.497Z,96.40
2023-03-10T08:41:11.408Z,96.40
2023-03-10T08:43:39.204Z,96.30
2023-03-10T08:46:08.800Z,96.40
2023-03-10T08:48:36.118Z,96.50
2023-03-10T08:51:03.312Z,96.50
2023-03-10T08:53:30.418Z,96.50
2023-03-10T08:55:57.183Z,96.60
2023-03-10T08:58:24.102Z,96.50
2023-03-10T09:00:51.034Z,96.50
2023-03-10T09:03:19.455Z,96.50
2023-03-10T09:05:46.511Z,96.60
2023-03-10T09:08:13.296Z,96.50
2023-03-10T09:10:41.542Z,96.60
2023-03-10T09:13:13.956Z,96.70
2023-03-10T09:15:42.006Z,96.70
2023-03-10T09:18:08.843Z,96.70
2023-03-10T09:20:38.162Z,96.60
2023-03-10T09:23:05.904Z,96.80
2023-03-10T09:25:32.645Z,96.60
2023-03-10T09:27:59.452Z,96.50
2023-03-10T09:30:26.476Z,96.40
2023-03-10T09:32:53.578Z,96.10
2023-03-10T09:35:20.500Z,95.90
2023-03-10T09:37:48.582Z,95.70
2023-03-10T09:40:19.477Z,95.50
2023-03-10T09:42:47.809Z,95.50
2023-03-10T09:45:29.719Z,95.50
2023-03-10T09:48:10.305Z,95.40
2023-03-10T09:50:42.102Z,95.40
2023-03-10T09:53:25.732Z,95.80
2023-03-10T09:55:52.487Z,96.30
2023-03-10T09:58:30.238Z,96.50
2023-03-10T10:00:58.076Z,96.90
2023-03-10T10:03:42.942Z,97.60
2023-03-10T10:06:22.775Z,97.20
2023-03-10T10:09:03.432Z,97.60
2023-03-10T10:11:31.339Z,97.60
2023-03-10T10:14:22.054Z,97.70
2023-03-10T10:16:59.670Z,97.70
2023-03-10T10:19:28.072Z,97.80
2023-03-10T10:22:02.331Z,98.10
2023-03-10T10:24:30.390Z,97.90
2023-03-10T10:26:57.111Z,98.10
2023-03-10T10:29:25.527Z,98.10
2023-03-10T10:32:08.354Z,98.00
2023-03-10T10:34:37.402Z,97.90
2023-03-10T10:37:24.188Z,97.80
2023-03-10T10:39:54.301Z,97.70
2023-03-10T10:42:23.252Z,97.70
2023-03-10T10:44:52.427Z,97.70
2023-03-10T10:47:26.807Z,97.80
2023-03-10T10:49:54.920Z,97.70
2023-03-10T10:52:23.495Z,97.70
2023-03-10T10:54:55.178Z,97.60
2023-03-10T10:57:25.416Z,97.50
2023-03-10T10:59:52.154Z,97.40
2023-03-10T11:02:28.473Z,97.40
2023-03-10T11:04:55.294Z,97.50
2023-03-10T11:07:26.000Z,97.50
2023-03-10T11:09:56.762Z,97.50
2023-03-10T11:12:31.570Z,97.60
2023-03-10T11:15:07.493Z,97.60
2023-03-10T11:17:40.044Z,97.50
2023-03-10T11:20:20.506Z,97.40
2023-03-10T11:22:52.874Z,98.00
2023-03-10T11:25:26.682Z,97.80
2023-03-10T11:28:15.910Z,97.80
2023-03-10T11:30:49.985Z,97.60
2023-03-10T11:33:20.058Z,97.80
2023-03-10T11:35:50.666Z,97.60
2023-03-10T11:38:30.534Z,97.60
2023-03-10T11:41:04.127Z,97.30
2023-03-10T11:43:40.164Z,97.10
2023-03-10T11:46:14.398Z,96.90
2023-03-10T11:48:58.895Z,96.80
2023-03-10T11:51:27.964Z,96.70
2023-03-10T11:53:57.332Z,96.60
2023-03-10T11:56:27.661Z,96.50
2023-03-10T11:58:58.296Z,96.50
2023-03-10T12:01:29.802Z,96.50
2023-03-10T12:04:02.631Z,96.50
2023-03-10T12:06:34.453Z,96.40
2023-03-10T12:09:02.744Z,96.20
2023-03-10T12:11:31.280Z,96.30
2023-03-10T12:14:00.746Z,96.20
2023-03-10T12:16:30.436Z,96.20
2023-03-10T12:18:57.875Z,96.30
2023-03-10T12:21:26.522Z,96.40
2023-03-10T12:23:54.803Z,96.40
2023-03-10T12:27:00.699Z,96.40
2023-03-10T12:29:35.195Z,96.40
2023-03-10T12:32:02.092Z,96.00
2023-03-10T12:34:30.183Z,95.90
2023-03-10T12:37:04.469Z,95.70
2023-03-10T12:39:36.424Z,95.40
2023-03-10T12:42:04.612Z,95.50
2023-03-10T12:44:44.806Z,95.40
2023-03-10T12:47:23.064Z,94.80
2023-03-10T12:49:53.462Z,94.90
2023-03-10T12:52:27.908Z,94.40
2023-03-10T12:55:14.388Z,94.20
2023-03-10T12:57:48.546Z,94.30
2023-03-10T13:00:23.724Z,94.30
2023-03-10T13:02:53.413Z,94.50
2023-03-10T13:05:22.984Z,94.40
2023-03-10T13:07:52.847Z,94.50
2023-03-10T13:10:22.262Z,94.20
2023-03-10T13:12:51.252Z,94.20
2023-03-10T13:15:25.033Z,94.30
2023-03-10T13:17:52.196Z,94.00
2023-03-10T13:20:19.564Z,93.80
2023-03-10T13:22:53.589Z,94.30
2023-03-10T13:25:20.516Z,94.30
2023-03-10T13:27:47.325Z,94.30
2023-03-10T13:30:16.362Z,94.00
2023-03-10T13:32:52.883Z,94.10
2023-03-10T13:35:25.723Z,94.00
2023-03-10T13:38:11.979Z,94.10
2023-03-10T13:40:41.869Z,94.00
2023-03-10T13:43:33.044Z,93.80
2023-03-10T13:46:01.619Z,93.80
2023-03-10T13:48:32.003Z,93.80
2023-03-10T13:51:17.093Z,93.50
2023-03-10T13:53:44.587Z,93.30
2023-03-10T13:56:34.752Z,93.50
2023-03-10T13:59:03.291Z,93.90
2023-03-10T14:01:33.306Z,93.60
2023-03-10T14:04:04.372Z,93.50
2023-03-10T14:06:33.714Z,93.70
2023-03-10T14:09:13.409Z,94.00
2023-03-10T14:11:41.350Z,93.90
2023-03-10T14:14:10.158Z,94.10
2023-03-10T14:16:52.018Z,94.20
2023-03-10T14:19:49.348Z,94.30
2023-03-10T14:22:37.342Z,94.50
2023-03-10T14:25:13.200Z,94.20
2023-03-10T14:27:42.709Z,94.30
2023-03-10T14:30:22.518Z,94.50
2023-03-10T14:32:49.554Z,94.60
2023-03-10T14:35:19.260Z,94.80
2023-03-10T14:37:46.241Z,94.70
2023-03-10T14:40:13.231Z,94.70
2023-03-10T14:42:40.834Z,94.50
2023-03-10T14:45:23.035Z,94.50
2023-03-10T14:47:50.533Z,94.50
2023-03-10T14:50:20.365Z,94.50
2023-03-10T14:52:47.201Z,94.50
2023-03-10T14:55:14.228Z,94.60
2023-03-10T14:57:42.934Z,94.60
2023-03-10T15:00:13.510Z,94.60
2023-03-10T15:02:40.284Z,94.50
2023-03-10T15:05:09.954Z,94.60
2023-03-10T15:07:38.029Z,94.70
2023-03-10T15:10:12.544Z,94.90
2023-03-10T15:12:40.468Z,95.00
2023-03-10T15:15:14.255Z,94.90
2023-03-10T15:17:41.006Z,94.90
2023-03-10T15:20:14.028Z,95.00
2023-03-10T15:22:42.212Z,95.10
2023-03-10T15:25:09.705Z,95.40
2023-03-10T15:27:36.611Z,95.50
2023-03-10T15:30:04.131Z,95.50
2023-03-10T15:32:30.891Z,95.30
2023-03-10T15:34:57.635Z,95.40
2023-03-10T15:37:24.463Z,95.40
2023-03-10T15:39:52.511Z,95.40
2023-03-10T15:42:19.273Z,95.30
2023-03-10T15:44:47.945Z,95.30
2023-03-10T15:47:14.694Z,95.30
2023-03-10T15:49:41.434Z,95.40
2023-03-10T15:52:08.141Z,95.50
2023-03-10T15:54:34.875Z,95.90
2023-03-10T15:57:02.936Z,96.20
2023-03-10T15:59:29.652Z,96.40
2023-03-10T16:01:56.364Z,96.80
2023-03-10T16:04:23.225Z,96.80
2023-03-10T16:06:50.102Z,97.00
2023-03-10T16:09:17.034Z,97.30
2023-03-10T16:11:43.748Z,97.40
2023-03-10T16:14:11.816Z,97.70
2023-03-10T16:16:38.595Z,97.70
2023-03-10T16:19:05.329Z,98.20
2023-03-10T16:21:32.039Z,98.00
2023-03-10T16:23:58.743Z,98.20
2023-03-10T16:26:25.475Z,98.30
2023-03-10T16:28:53.614Z,98.40
2023-03-10T16:31:24.510Z,98.40
2023-03-10T16:33:51.739Z,98.30
2023-03-10T16:36:20.191Z,98.30
2023-03-10T16:38:47.734Z,98.40
2023-03-10T16:41:14.482Z,98.30
2023-03-10T16:43:41.181Z,97.90
2023-03-10T16:46:10.111Z,97.40
2023-03-10T16:48:40.360Z,97.30
2023-03-10T16:51:18.953Z,97.10
2023-03-10T16:53:46.106Z,96.50
2023-03-10T16:56:12.907Z,96.50
2023-03-10T16:58:39.632Z,96.00
2023-03-10T17:01:06.447Z,95.90
2023-03-10T17:03:33.205Z,95.60
2023-03-10T17:06:01.271Z,95.10
2023-03-10T17:08:28.711Z,94.70
2023-03-10T17:10:55.444Z,95.10
2023-03-10T17:13:22.118Z,94.70
2023-03-10T17:15:48.801Z,94.50
2023-03-10T17:18:15.489Z,94.50
2023-03-10T17:20:43.340Z,94.70
2023-03-10T17:23:11.491Z,99.90
2023-03-10T17:25:38.276Z,99.90
2023-03-10T17:28:05.209Z,99.90
2023-03-10T17:30:32.072Z,99.90
2023-03-10T17:32:59.020Z,99.90
2023-03-10T17:35:26.086Z,99.90
2023-03-10T17:37:52.775Z,99.90
2023-03-10T17:40:20.898Z,99.90
2023-03-10T17:42:47.605Z,99.90
2023-03-10T17:45:14.449Z,99.90
2023-03-10T17:47:41.166Z,99.90
2023-03-10T17:50:09.087Z,99.90
2023-03-10T17:52:35.950Z,99.90
2023-03-10T17:55:03.202Z,99.90
2023-03-10T17:57:31.419Z,99.90
2023-03-10T17:59:58.240Z,99.90
2023-03-10T18:02:25.249Z,99.90
2023-03-10T18:04:52.046Z,99.60
2023-03-10T18:07:18.771Z,99.20
2023-03-10T18:09:45.488Z,99.30
2023-03-10T18:12:12.202Z,98.70
2023-03-10T18:14:40.285Z,98.40
2023-03-10T18:17:07.005Z,98.80
2023-03-10T18:19:33.742Z,97.70
2023-03-10T18:22:00.491Z,97.80
2023-03-10T18:24:27.192Z,97.70
2023-03-10T18:26:53.935Z,97.80
2023-03-10T18:29:20.647Z,97.60
2023-03-10T18:31:48.732Z,97.50
2023-03-10T18:34:15.405Z,97.00
2023-03-10T18:36:42.185Z,96.50
2023-03-10T18:39:10.267Z,96.50
2023-03-10T18:41:37.030Z,96.40
2023-03-10T18:44:04.303Z,96.40
2023-03-10T18:46:31.032Z,96.40
2023-03-10T18:48:59.230Z,96.50
2023-03-10T18:51:27.474Z,96.60
2023-03-10T18:53:54.365Z,95.60
2023-03-10T18:56:21.240Z,94.40
2023-03-10T18:58:47.980Z,92.80
2023-03-10T19:01:15.655Z,92.30
2023-03-10T19:03:42.713Z,91.90
2023-03-10T19:06:10.784Z,91.70
2023-03-10T19:08:38.848Z,91.40
2023-03-10T19:11:06.302Z,91.40
2023-03-10T19:13:33.486Z,91.20
2023-03-10T19:16:04.306Z,91.00
2023-03-10T19:18:31.093Z,91.20
2023-03-10T19:20:59.645Z,91.00
2023-03-10T19:23:28.252Z,90.90
2023-03-10T19:25:55.134Z,90.70
2023-03-10T19:28:21.904Z,90.40
2023-03-10T19:30:48.605Z,90.50
2023-03-10T19:33:15.371Z,90.30
2023-03-10T19:35:42.126Z,90.20
2023-03-10T19:38:08.995Z,90.20
2023-03-10T19:40:37.313Z,90.30
2023-03-10T19:43:04.366Z,90.20
2023-03-10T19:45:31.141Z,89.90
2023-03-10T19:47:57.884Z,89.80
2023-03-10T19:50:27.530Z,90.10
2023-03-10T19:52:54.300Z,90.10
2023-03-10T19:55:22.785Z,90.00
2023-03-10T19:57:52.785Z,90.10
2023-03-10T20:00:21.907Z,90.20
2023-03-10T20:02:48.643Z,90.30
2023-03-10T20:05:15.561Z,90.40
2023-03-10T20:07:44.198Z,90.50
2023-03-10T20:10:11.677Z,90.50
2023-03-10T20:12:38.653Z,90.60
2023-03-10T20:15:08.054Z,90.70
2023-03-10T20:17:34.879Z,90.70
2023-03-10T20:20:01.787Z,90.80
2023-03-10T20:22:28.626Z,90.70
2023-03-10T20:24:55.346Z,90.80
2023-03-10T20:27:22.053Z,90.80
2023-03-10T20:29:48.781Z,90.80
2023-03-10T20:32:16.881Z,90.90
2023-03-10T20:34:43.642Z,91.00
2023-03-10T20:37:10.406Z,91.00
2023-03-10T20:39:37.116Z,91.00
2023-03-10T20:42:03.974Z,91.00
2023-03-10T20:44:30.702Z,91.00
2023-03-10T20:46:57.941Z,91.10
2023-03-10T20:49:25.996Z,91.10
2023-03-10T20:51:52.720Z,91.00
2023-03-10T20:54:20.456Z,90.70
2023-03-10T20:56:47.183Z,90.80
2023-03-10T20:59:13.920Z,90.80
2023-03-10T21:01:40.729Z,90.80
2023-03-10T21:04:07.690Z,90.80
2023-03-10T21:06:36.027Z,90.70
2023-03-10T21:09:02.968Z,90.60
2023-03-10T21:11:29.705Z,90.50
2023-03-10T21:13:56.405Z,90.50
2023-03-10T21:16:23.192Z,90.90
2023-03-10T21:18:49.961Z,91.10
2023-03-10T21:21:16.699Z,91.60
2023-03-10T21:23:44.903Z,91.60
2023-03-10T21:26:12.905Z,91.50
2023-03-10T21:28:39.837Z,91.70
2023-03-10T21:31:06.930Z,91.40
2023-03-10T21:33:33.723Z,91.20
2023-03-10T21:36:00.925Z,91.10
2023-03-10T21:38:27.724Z,91.00
2023-03-10T21:40:56.142Z,90.90
2023-03-10T21:43:22.909Z,90.70
2023-03-10T21:45:49.631Z,90.60
2023-03-10T21:48:16.344Z,90.20
2023-03-10T21:50:43.083Z,89.70
2023-03-10T21:53:13.599Z,88.30
2023-03-10T21:55:40.451Z,87.20
2023-03-10T21:58:08.609Z,86.20
2023-03-10T22:00:35.448Z,85.60
2023-03-10T22:03:02.910Z,84.90
2023-03-10T22:05:29.640Z,83.80
2023-03-10T22:07:56.387Z,83.00
2023-03-10T22:10:23.196Z,82.40
2023-03-10T22:12:49.890Z,82.60
2023-03-10T22:15:20.600Z,82.40
2023-03-10T22:17:48.001Z,82.50
2023-03-10T22:20:16.535Z,82.40
2023-03-10T22:22:43.235Z,82.60
2023-03-10T22:25:10.322Z,82.20
2023-03-10T22:27:37.072Z,82.20
2023-03-10T22:30:04.907Z,82.20
2023-03-10T22:32:33.036Z,82.10
2023-03-10T22:34:59.961Z,82.00
2023-03-10T22:37:26.737Z,82.40
2023-03-10T22:39:53.511Z,82.60
2023-03-10T22:42:20.248Z,82.50
2023-03-10T22:44:46.984Z,83.50
2023-03-10T22:47:13.682Z,83.90
2023-03-10T22:49:41.920Z,83.90
2023-03-10T22:52:08.644Z,84.00
2023-03-10T22:54:35.542Z,84.00
2023-03-10T22:57:02.679Z,84.00
2023-03-10T22:59:29.420Z,84.40
2023-03-10T23:01:56.185Z,84.30
2023-03-10T23:04:22.914Z,84.00
2023-03-10T23:06:51.073Z,84.00
2023-03-10T23:09:17.830Z,83.90
2023-03-10T23:11:44.551Z,83.70
2023-03-10T23:14:11.283Z,83.50
2023-03-10T23:16:38.077Z,83.20
2023-03-10T23:19:08.330Z,83.20
2023-03-10T23:21:35.887Z,83.30
2023-03-10T23:24:04.488Z,83.20
2023-03-10T23:26:31.193Z,83.00
2023-03-10T23:28:57.963Z,82.80
2023-03-10T23:31:24.734Z,82.60
2023-03-10T23:33:51.558Z,82.40
2023-03-10T23:36:18.801Z,82.00
2023-03-10T23:38:45.537Z,81.50
2023-03-10T23:41:13.701Z,81.30
2023-03-10T23:43:40.466Z,80.70
2023-03-10T23:46:08.489Z,80.40
2023-03-10T23:48:35.665Z,80.10
2023-03-10T23:51:02.412Z,79.90
2023-03-10T23:53:29.442Z,79.70
2023-03-10T23:55:56.572Z,79.10
2023-03-10T23:58:24.952Z,78.90
